createdAt,value
2019-02-26T00:00:27.484Z,5.20
2019-02-26T00:03:00.483Z,5.30
2019-02-26T00:05:30.671Z,5.20
2019-02-26T00:08:02.422Z,5.30
2019-02-26T00:10:29.534Z,5.20
2019-02-26T00:12:58.241Z,5.20
2019-02-26T00:15:26.072Z,5.20
2019-02-26T00:17:54.877Z,5.10
2019-02-26T00:20:25.047Z,5.10
2019-02-26T00:23:12.612Z,5.00
2019-02-26T00:25:39.543Z,4.90
2019-02-26T00:28:08.282Z,4.80
2019-02-26T00:30:37.418Z,4.80
2019-02-26T00:33:05.389Z,4.80
2019-02-26T00:35:35.185Z,4.70
2019-02-26T00:38:01.757Z,4.70
2019-02-26T00:40:28.189Z,4.60
2019-02-26T00:42:59.516Z,4.60
2019-02-26T00:45:31.656Z,4.50
2019-02-26T00:47:58.352Z,4.60
2019-02-26T00:50:25.064Z,4.60
2019-02-26T00:52:54.606Z,4.50
2019-02-26T00:55:25.226Z,4.40
2019-02-26T00:57:51.380Z,4.30
2019-02-26T01:00:20.158Z,4.30
2019-02-26T01:02:46.985Z,4.40
2019-02-26T01:05:15.756Z,4.40
2019-02-26T01:07:44.905Z,4.40
2019-02-26T01:10:13.958Z,4.40
2019-02-26T01:12:42.660Z,4.50
2019-02-26T01:15:15.494Z,4.60
2019-02-26T01:17:43.813Z,4.60
2019-02-26T01:20:14.663Z,4.50
2019-02-26T01:22:42.853Z,4.50
2019-02-26T01:25:12.570Z,4.50
2019-02-26T01:27:41.365Z,4.50
2019-02-26T01:30:18.249Z,4.40
2019-02-26T01:32:44.255Z,4.40
2019-02-26T01:35:12.955Z,4.40
2019-02-26T01:37:42.051Z,4.30
2019-02-26T01:40:13.798Z,4.30
2019-02-26T01:42:41.075Z,4.20
2019-02-26T01:45:14.584Z,4.20
2019-02-26T01:47:47.625Z,4.20
2019-02-26T01:50:16.053Z,4.20
2019-02-26T01:52:43.937Z,4.20
2019-02-26T01:55:12.026Z,4.30
2019-02-26T01:57:42.550Z,4.30
2019-02-26T02:00:10.452Z,4.20
2019-02-26T02:02:39.005Z,4.20
2019-02-26T02:05:07.333Z,4.30
2019-02-26T02:07:34.786Z,4.20
2019-02-26T02:10:03.250Z,4.10
2019-02-26T02:12:32.435Z,4.00
2019-02-26T02:15:00.306Z,4.00
2019-02-26T02:17:28.820Z,4.00
2019-02-26T02:19:56.565Z,4.00
2019-02-26T02:22:24.916Z,4.00
2019-02-26T02:24:54.007Z,4.00
2019-02-26T02:27:25.223Z,3.90
2019-02-26T02:29:55.168Z,3.90
2019-02-26T02:32:26.102Z,3.90
2019-02-26T02:34:58.238Z,3.90
2019-02-26T02:37:26.798Z,3.90
2019-02-26T02:39:54.066Z,4.00
2019-02-26T02:42:22.673Z,4.10
2019-02-26T02:44:52.821Z,4.10
2019-02-26T02:47:19.709Z,4.10
2019-02-26T02:49:47.372Z,4.00
2019-02-26T02:52:16.114Z,4.00
2019-02-26T02:54:44.186Z,4.00
2019-02-26T02:57:11.462Z,3.90
2019-02-26T02:59:42.071Z,4.00
2019-02-26T03:02:12.029Z,3.90
2019-02-26T03:04:40.833Z,3.90
2019-02-26T03:07:08.899Z,3.90
2019-02-26T03:09:37.737Z,3.80
2019-02-26T03:12:04.419Z,3.70
2019-02-26T03:14:33.829Z,3.70
2019-02-26T03:17:00.808Z,3.70
2019-02-26T03:19:29.742Z,3.70
2019-02-26T03:21:58.183Z,3.70
2019-02-26T03:24:35.957Z,3.60
2019-02-26T03:27:06.152Z,3.60
2019-02-26T03:29:33.502Z,3.60
2019-02-26T03:32:01.951Z,3.60
2019-02-26T03:34:28.669Z,3.60
2019-02-26T03:36:57.244Z,3.70
2019-02-26T03:39:30.196Z,3.80
2019-02-26T03:41:58.537Z,4.00
2019-02-26T03:44:30.251Z,3.90
2019-02-26T03:47:02.718Z,3.90
2019-02-26T03:49:29.288Z,3.80
2019-02-26T03:51:59.050Z,3.80
2019-02-26T03:54:26.280Z,3.80
2019-02-26T03:56:53.839Z,3.70
2019-02-26T03:59:22.868Z,3.80
2019-02-26T04:01:49.628Z,3.80
2019-02-26T04:04:16.066Z,3.70
2019-02-26T04:06:45.885Z,3.70
2019-02-26T04:09:11.808Z,3.70
2019-02-26T04:11:45.445Z,3.70
2019-02-26T04:14:12.602Z,3.60
2019-02-26T04:16:41.120Z,3.60
2019-02-26T04:19:09.530Z,3.60
2019-02-26T04:22:15.239Z,3.70
2019-02-26T04:24:43.033Z,3.70
2019-02-26T04:27:22.266Z,3.80
2019-02-26T04:29:52.960Z,3.80
2019-02-26T04:32:35.587Z,3.90
2019-02-26T04:35:05.270Z,3.90
2019-02-26T04:37:45.156Z,3.90
2019-02-26T04:40:27.214Z,3.90
2019-02-26T04:43:04.727Z,3.90
2019-02-26T04:45:53.448Z,3.90
2019-02-26T04:48:26.941Z,3.80
2019-02-26T04:50:54.729Z,3.80
2019-02-26T04:53:23.261Z,3.70
2019-02-26T04:55:50.349Z,3.70
2019-02-26T04:58:20.137Z,3.80
2019-02-26T05:00:49.224Z,3.70
2019-02-26T05:03:18.094Z,3.70
2019-02-26T05:05:46.428Z,3.70
2019-02-26T05:08:22.235Z,3.70
2019-02-26T05:10:51.891Z,3.70
2019-02-26T05:13:18.163Z,3.80
2019-02-26T05:15:45.131Z,3.80
2019-02-26T05:18:17.636Z,3.80
2019-02-26T05:20:48.070Z,3.80
2019-02-26T05:23:15.928Z,3.90
2019-02-26T05:25:44.883Z,3.90
2019-02-26T05:28:14.776Z,3.90
2019-02-26T05:30:43.832Z,3.90
2019-02-26T05:33:12.041Z,3.90
2019-02-26T05:35:40.689Z,3.90
2019-02-26T05:38:09.627Z,3.90
2019-02-26T05:40:40.369Z,3.90
2019-02-26T05:43:11.496Z,3.90
2019-02-26T05:45:41.419Z,3.90
2019-02-26T05:48:09.331Z,3.90
2019-02-26T05:50:38.460Z,3.90
2019-02-26T05:53:07.520Z,3.90
2019-02-26T05:55:34.272Z,3.90
2019-02-26T05:58:02.722Z,3.80
2019-02-26T06:00:32.842Z,3.90
2019-02-26T06:03:03.460Z,3.90
2019-02-26T06:05:34.096Z,3.90
2019-02-26T06:08:02.342Z,3.90
2019-02-26T06:10:32.005Z,3.80
2019-02-26T06:12:58.118Z,3.80
2019-02-26T06:15:25.943Z,3.70
2019-02-26T06:17:53.411Z,3.70
2019-02-26T06:20:23.676Z,3.60
2019-02-26T06:22:54.211Z,3.50
2019-02-26T06:25:24.347Z,3.60
2019-02-26T06:27:52.302Z,3.70
2019-02-26T06:30:20.684Z,3.80
2019-02-26T06:32:48.471Z,3.70
2019-02-26T06:35:16.484Z,3.70
2019-02-26T06:37:45.197Z,3.70
2019-02-26T06:40:15.258Z,3.70
2019-02-26T06:42:43.137Z,3.70
2019-02-26T06:45:15.547Z,3.80
2019-02-26T06:47:41.636Z,3.80
2019-02-26T06:50:13.982Z,3.80
2019-02-26T06:52:44.755Z,3.80
2019-02-26T06:55:12.635Z,3.90
2019-02-26T06:57:41.449Z,3.80
2019-02-26T07:00:16.782Z,3.80
2019-02-26T07:02:46.136Z,3.90
2019-02-26T07:05:12.718Z,4.00
2019-02-26T07:07:46.100Z,4.10
2019-02-26T07:10:16.011Z,4.20
2019-02-26T07:12:46.153Z,4.30
2019-02-26T07:15:14.131Z,4.30
2019-02-26T07:17:42.995Z,4.40
2019-02-26T07:20:12.535Z,4.40
2019-02-26T07:22:41.502Z,4.50
2019-02-26T07:25:15.257Z,4.50
2019-02-26T07:27:40.854Z,4.50
2019-02-26T07:30:10.237Z,4.60
2019-02-26T07:32:38.241Z,4.60
2019-02-26T07:35:08.746Z,4.60
2019-02-26T07:37:38.110Z,4.60
2019-02-26T07:40:10.281Z,4.60
2019-02-26T07:42:39.174Z,4.70
2019-02-26T07:45:15.146Z,4.70
2019-02-26T07:47:38.150Z,4.70
2019-02-26T07:50:09.729Z,4.80
2019-02-26T07:52:35.742Z,4.80
2019-02-26T07:55:09.158Z,4.80
2019-02-26T07:57:34.575Z,4.80
2019-02-26T08:00:06.626Z,4.90
2019-02-26T08:02:37.301Z,4.90
2019-02-26T08:05:04.704Z,4.90
2019-02-26T08:07:36.400Z,4.90
2019-02-26T08:10:08.115Z,4.90
2019-02-26T08:12:35.696Z,5.00
2019-02-26T08:15:07.970Z,5.00
2019-02-26T08:17:35.737Z,5.00
2019-02-26T08:20:07.445Z,5.00
2019-02-26T08:22:36.314Z,5.10
2019-02-26T08:25:07.733Z,5.10
2019-02-26T08:27:37.737Z,5.10
2019-02-26T08:30:14.857Z,5.10
2019-02-26T08:32:48.763Z,5.00
2019-02-26T08:35:18.352Z,5.10
2019-02-26T08:37:44.313Z,5.10
2019-02-26T08:40:11.572Z,5.10
2019-02-26T08:42:37.937Z,5.10
2019-02-26T08:45:15.073Z,5.20
2019-02-26T08:47:43.037Z,5.30
2019-02-26T08:50:12.536Z,5.50
2019-02-26T08:52:40.298Z,5.60
2019-02-26T08:55:10.761Z,5.70
2019-02-26T08:57:38.649Z,5.70
2019-02-26T09:00:15.246Z,5.80
2019-02-26T09:02:43.562Z,5.90
2019-02-26T09:05:11.889Z,6.20
2019-02-26T09:07:40.406Z,6.40
2019-02-26T09:10:12.462Z,6.50
2019-02-26T09:12:41.919Z,6.50
2019-02-26T09:15:11.181Z,6.40
2019-02-26T09:17:41.442Z,6.30
2019-02-26T09:20:14.699Z,6.20
2019-02-26T09:22:45.706Z,6.20
2019-02-26T09:25:10.081Z,6.10
2019-02-26T09:27:42.548Z,6.10
2019-02-26T09:30:16.074Z,6.20
2019-02-26T09:32:44.759Z,6.20
2019-02-26T09:35:12.119Z,6.20
2019-02-26T09:37:38.692Z,6.30
2019-02-26T09:40:09.536Z,6.40
2019-02-26T09:42:36.374Z,6.60
2019-02-26T09:45:05.835Z,6.70
2019-02-26T09:47:33.486Z,6.80
2019-02-26T09:49:59.989Z,6.90
2019-02-26T09:52:30.123Z,7.10
2019-02-26T09:54:56.409Z,7.30
2019-02-26T09:57:23.434Z,7.50
2019-02-26T09:59:52.212Z,7.60
2019-02-26T10:02:21.949Z,7.80
2019-02-26T10:04:49.606Z,8.00
2019-02-26T10:07:17.326Z,8.30
2019-02-26T10:09:46.627Z,8.40
2019-02-26T10:12:15.172Z,8.60
2019-02-26T10:14:40.181Z,8.70
2019-02-26T10:17:06.703Z,8.80
2019-02-26T10:19:35.515Z,8.80
2019-02-26T10:22:03.587Z,8.80
2019-02-26T10:24:33.031Z,8.80
2019-02-26T10:27:03.243Z,8.80
2019-02-26T10:29:32.333Z,8.80
2019-02-26T10:31:59.342Z,8.80
2019-02-26T10:34:30.182Z,9.00
2019-02-26T10:36:55.797Z,9.10
2019-02-26T10:39:26.439Z,9.10
2019-02-26T10:41:56.038Z,9.20
2019-02-26T10:44:22.676Z,9.30
2019-02-26T10:46:49.705Z,9.30
2019-02-26T10:49:16.466Z,9.40
2019-02-26T10:51:43.186Z,9.40
2019-02-26T10:54:16.986Z,9.50
2019-02-26T10:56:57.261Z,9.50
2019-02-26T10:59:24.239Z,9.60
2019-02-26T11:01:53.246Z,9.60
2019-02-26T11:04:21.473Z,9.70
2019-02-26T11:06:49.371Z,9.80
2019-02-26T11:09:19.250Z,9.90
2019-02-26T11:11:46.001Z,10.00
2019-02-26T11:14:16.031Z,10.00
2019-02-26T11:16:43.231Z,9.90
2019-02-26T11:19:12.382Z,10.00
2019-02-26T11:21:40.402Z,10.00
2019-02-26T11:24:08.729Z,10.10
2019-02-26T11:26:38.282Z,10.20
2019-02-26T11:29:05.522Z,10.30
2019-02-26T11:31:31.747Z,10.50
2019-02-26T11:34:01.038Z,10.60
2019-02-26T11:36:28.095Z,10.80
2019-02-26T11:38:55.075Z,10.80
2019-02-26T11:41:23.829Z,10.80
2019-02-26T11:43:51.049Z,10.80
2019-02-26T11:46:20.002Z,10.80
2019-02-26T11:48:47.694Z,10.80
2019-02-26T11:51:17.681Z,10.80
2019-02-26T11:53:45.846Z,10.80
2019-02-26T11:56:13.530Z,10.80
2019-02-26T11:58:41.253Z,10.70
2019-02-26T12:01:08.301Z,10.70
2019-02-26T12:03:38.550Z,10.60
2019-02-26T12:06:06.942Z,10.60
2019-02-26T12:08:32.770Z,10.60
2019-02-26T12:11:03.559Z,10.60
2019-02-26T12:13:27.833Z,10.70
2019-02-26T12:15:55.598Z,10.80
2019-02-26T12:18:24.174Z,10.80
2019-02-26T12:20:54.491Z,10.90
2019-02-26T12:23:24.495Z,11.00
2019-02-26T12:25:55.536Z,11.10
2019-02-26T12:28:25.419Z,11.20
2019-02-26T12:30:58.607Z,11.30
2019-02-26T12:33:32.286Z,11.30
2019-02-26T12:35:59.536Z,11.40
2019-02-26T12:38:27.218Z,11.40
2019-02-26T12:40:54.008Z,11.40
2019-02-26T12:43:20.362Z,11.40
2019-02-26T12:45:47.285Z,11.40
2019-02-26T12:48:19.155Z,11.40
2019-02-26T12:50:43.345Z,11.40
2019-02-26T12:53:17.244Z,11.40
2019-02-26T12:55:42.883Z,11.30
2019-02-26T12:58:14.652Z,11.30
2019-02-26T13:00:42.285Z,11.30
2019-02-26T13:03:12.751Z,11.30
2019-02-26T13:05:42.409Z,11.30
2019-02-26T13:08:13.433Z,11.20
2019-02-26T13:10:42.527Z,11.10
2019-02-26T13:13:09.317Z,11.10
2019-02-26T13:15:36.910Z,11.00
2019-02-26T13:18:06.548Z,11.00
2019-02-26T13:20:33.093Z,10.90
2019-02-26T13:23:16.228Z,10.90
2019-02-26T13:25:31.792Z,10.90
2019-02-26T13:28:02.189Z,10.90
2019-02-26T13:30:30.411Z,10.90
2019-02-26T13:33:05.455Z,10.80
2019-02-26T13:35:30.669Z,10.80
2019-02-26T13:37:58.811Z,10.80
2019-02-26T13:40:25.485Z,10.70
2019-02-26T13:45:28.432Z,10.90
2019-02-26T13:48:00.957Z,11.00
2019-02-26T13:50:28.762Z,11.00
2019-02-26T13:52:56.410Z,11.00
2019-02-26T13:55:22.887Z,11.10
2019-02-26T13:57:50.219Z,11.00
2019-02-26T14:00:25.954Z,11.00
2019-02-26T14:02:49.029Z,10.90
2019-02-26T14:05:15.769Z,10.80
2019-02-26T14:07:43.377Z,10.80
2019-02-26T14:10:18.295Z,10.70
2019-02-26T14:12:45.254Z,10.70
2019-02-26T14:15:17.347Z,10.70
2019-02-26T14:17:44.728Z,10.80
2019-02-26T14:20:13.206Z,10.80
2019-02-26T14:22:40.769Z,10.80
2019-02-26T14:25:09.457Z,10.90
2019-02-26T14:27:36.882Z,10.90
2019-02-26T14:30:09.124Z,10.90
2019-02-26T14:32:35.468Z,10.90
2019-02-26T14:35:07.023Z,10.80
2019-02-26T14:37:33.543Z,10.70
2019-02-26T14:40:00.355Z,10.70
2019-02-26T14:42:28.266Z,10.60
2019-02-26T14:44:55.414Z,10.50
2019-02-26T14:47:23.046Z,10.40
2019-02-26T14:49:55.679Z,10.30
2019-02-26T14:52:25.723Z,10.20
2019-02-26T14:54:53.804Z,10.30
2019-02-26T14:57:21.563Z,10.30
2019-02-26T14:59:51.943Z,10.30
2019-02-26T15:02:20.038Z,10.30
2019-02-26T15:04:47.910Z,10.40
2019-02-26T15:07:16.485Z,10.30
2019-02-26T15:09:43.016Z,10.30
2019-02-26T15:12:09.325Z,10.20
2019-02-26T15:14:36.876Z,10.10
2019-02-26T15:17:03.448Z,10.00
2019-02-26T15:19:29.775Z,9.90
2019-02-26T15:21:57.259Z,9.80
2019-02-26T15:24:23.621Z,9.70
2019-02-26T15:26:49.945Z,9.60
2019-02-26T15:29:16.365Z,9.50
2019-02-26T15:31:42.690Z,9.30
2019-02-26T15:34:09.018Z,9.20
2019-02-26T15:36:35.261Z,9.20
2019-02-26T15:39:01.485Z,9.10
2019-02-26T15:41:29.710Z,9.10
2019-02-26T15:43:56.547Z,9.10
2019-02-26T15:46:23.335Z,9.00
2019-02-26T15:48:49.665Z,9.00
2019-02-26T15:51:19.898Z,8.90
2019-02-26T15:53:44.035Z,8.90
2019-02-26T15:56:10.373Z,8.90
2019-02-26T15:58:37.035Z,8.80
2019-02-26T16:01:06.906Z,8.70
2019-02-26T16:03:33.246Z,8.60
2019-02-26T16:05:59.614Z,8.60
2019-02-26T16:08:34.375Z,8.60
2019-02-26T16:10:56.017Z,8.50
2019-02-26T16:13:22.265Z,8.40
2019-02-26T16:15:48.622Z,8.20
2019-02-26T16:18:16.015Z,8.10
2019-02-26T16:20:43.908Z,8.10
2019-02-26T16:23:10.277Z,7.90
2019-02-26T16:25:36.610Z,7.80
2019-02-26T16:28:03.018Z,7.70
2019-02-26T16:30:29.593Z,7.60
2019-02-26T16:32:56.129Z,7.50
2019-02-26T16:35:24.750Z,7.50
2019-02-26T16:37:53.649Z,7.40
2019-02-26T16:40:20.249Z,7.50
2019-02-26T16:43:06.520Z,7.50
2019-02-26T16:45:35.081Z,7.50
2019-02-26T16:48:01.519Z,7.30
2019-02-26T16:50:30.719Z,7.20
2019-02-26T16:52:58.054Z,7.10
2019-02-26T16:55:26.240Z,6.90
2019-02-26T16:57:52.585Z,6.80
2019-02-26T17:00:26.429Z,6.70
2019-02-26T17:02:52.743Z,6.70
2019-02-26T17:05:19.119Z,6.60
2019-02-26T17:07:45.646Z,6.50
2019-02-26T17:10:18.912Z,6.50
2019-02-26T17:12:50.878Z,6.40
2019-02-26T17:15:25.628Z,6.40
2019-02-26T17:17:51.693Z,6.40
2019-02-26T17:20:19.585Z,6.40
2019-02-26T17:22:46.157Z,6.30
2019-02-26T17:25:12.881Z,6.30
2019-02-26T17:27:39.656Z,6.40
2019-02-26T17:30:09.371Z,6.50
2019-02-26T17:32:35.764Z,6.60
2019-02-26T17:35:05.889Z,6.50
2019-02-26T17:37:32.305Z,6.40
2019-02-26T17:40:02.737Z,6.30
2019-02-26T17:42:26.690Z,6.20
2019-02-26T17:44:54.634Z,6.10
2019-02-26T17:47:21.059Z,6.10
2019-02-26T17:49:47.294Z,6.00
2019-02-26T17:52:13.583Z,6.00
2019-02-26T17:54:39.906Z,6.00
2019-02-26T17:57:06.150Z,5.90
2019-02-26T17:59:32.365Z,5.70
2019-02-26T18:01:58.794Z,5.70
2019-02-26T18:04:25.051Z,5.70
2019-02-26T18:06:51.373Z,5.70
2019-02-26T18:09:17.601Z,5.60
2019-02-26T18:11:43.857Z,5.60
2019-02-26T18:14:10.085Z,5.60
2019-02-26T18:16:36.317Z,5.60
2019-02-26T18:19:02.581Z,5.60
2019-02-26T18:21:28.997Z,5.50
2019-02-26T18:23:55.250Z,5.50
2019-02-26T18:26:21.688Z,5.40
2019-02-26T18:28:48.419Z,5.40
2019-02-26T18:31:14.750Z,5.30
2019-02-26T18:33:41.086Z,5.20
2019-02-26T18:36:07.305Z,5.20
2019-02-26T18:38:33.934Z,5.10
2019-02-26T18:41:00.815Z,5.20
2019-02-26T18:43:27.633Z,5.20
2019-02-26T18:45:53.969Z,5.20
2019-02-26T18:48:20.189Z,5.20
2019-02-26T18:50:46.502Z,5.20
2019-02-26T18:53:14.120Z,5.30
2019-02-26T18:55:41.049Z,5.20
2019-02-26T18:58:07.578Z,5.20
2019-02-26T19:00:33.914Z,5.20
2019-02-26T19:03:00.249Z,5.20
2019-02-26T19:05:26.470Z,5.20
2019-02-26T19:07:52.797Z,5.10
2019-02-26T19:10:21.049Z,5.00
2019-02-26T19:12:47.398Z,5.10
2019-02-26T19:15:22.021Z,5.10
2019-02-26T19:17:50.389Z,5.00
2019-02-26T19:20:22.617Z,5.00
2019-02-26T19:22:48.846Z,4.80
2019-02-26T19:25:16.065Z,4.80
2019-02-26T19:27:42.342Z,4.70
2019-02-26T19:30:13.087Z,4.60
2019-02-26T19:32:39.417Z,4.50
2019-02-26T19:35:12.217Z,4.40
2019-02-26T19:37:35.735Z,4.40
2019-02-26T19:40:05.938Z,4.40
2019-02-26T19:42:32.833Z,4.40
2019-02-26T19:44:59.056Z,4.40
2019-02-26T19:47:26.400Z,4.40
2019-02-26T19:49:52.738Z,4.40
2019-02-26T19:52:19.229Z,4.30
2019-02-26T19:54:46.553Z,4.30
2019-02-26T19:57:12.804Z,4.30
2019-02-26T19:59:39.034Z,4.20
2019-02-26T20:02:05.369Z,4.20
2019-02-26T20:04:31.740Z,4.20
2019-02-26T20:06:58.674Z,4.20
2019-02-26T20:09:25.381Z,4.30
2019-02-26T20:11:53.606Z,4.20
2019-02-26T20:14:21.705Z,4.20
2019-02-26T20:16:48.114Z,4.20
2019-02-26T20:19:14.356Z,4.30
2019-02-26T20:21:40.593Z,4.20
2019-02-26T20:24:06.828Z,4.20
2019-02-26T20:26:33.218Z,4.20
2019-02-26T20:28:59.505Z,4.10
2019-02-26T20:31:28.891Z,4.10
2019-02-26T20:33:56.403Z,4.10
2019-02-26T20:36:22.729Z,4.10
2019-02-26T20:38:50.062Z,4.00
2019-02-26T20:41:16.391Z,3.90
2019-02-26T20:43:42.706Z,4.10
2019-02-26T20:46:08.944Z,4.20
2019-02-26T20:48:36.833Z,4.20
2019-02-26T20:51:03.628Z,4.30
2019-02-26T20:53:29.942Z,4.20
2019-02-26T20:55:57.701Z,4.20
2019-02-26T20:58:24.618Z,4.20
2019-02-26T21:00:50.949Z,4.20
2019-02-26T21:03:17.281Z,4.00
2019-02-26T21:05:44.754Z,3.90
2019-02-26T21:08:11.634Z,3.80
2019-02-26T21:10:37.878Z,3.80
2019-02-26T21:13:04.097Z,3.70
2019-02-26T21:15:30.320Z,3.70
2019-02-26T21:17:58.019Z,3.70
2019-02-26T21:20:24.786Z,3.80
2019-02-26T21:22:54.583Z,3.80
2019-02-26T21:25:21.743Z,3.80
2019-02-26T21:27:48.122Z,3.80
2019-02-26T21:30:16.168Z,3.80
2019-02-26T21:32:44.913Z,3.70
2019-02-26T21:35:11.548Z,3.70
2019-02-26T21:37:37.778Z,3.70
2019-02-26T21:40:08.823Z,3.60
2019-02-26T21:42:35.165Z,3.60
2019-02-26T21:45:01.516Z,3.60
2019-02-26T21:47:27.879Z,3.60
2019-02-26T21:49:54.130Z,3.50
2019-02-26T21:52:20.381Z,3.50
2019-02-26T21:54:46.618Z,3.50
2019-02-26T21:57:12.834Z,3.40
2019-02-26T21:59:39.156Z,3.40
2019-02-26T22:02:05.475Z,3.40
2019-02-26T22:04:32.358Z,3.40
2019-02-26T22:06:58.755Z,3.50
2019-02-26T22:09:25.101Z,3.50
2019-02-26T22:11:51.359Z,3.50
2019-02-26T22:14:17.677Z,3.40
2019-02-26T22:16:44.031Z,3.40
2019-02-26T22:19:11.497Z,3.30
2019-02-26T22:21:41.585Z,3.30
2019-02-26T22:24:09.709Z,3.30
2019-02-26T22:26:36.117Z,3.20
2019-02-26T22:29:02.527Z,3.20
2019-02-26T22:31:29.430Z,3.10
2019-02-26T22:33:55.842Z,3.00
2019-02-26T22:36:22.221Z,3.10
2019-02-26T22:38:49.154Z,3.10
2019-02-26T22:41:16.067Z,3.10
2019-02-26T22:43:44.730Z,3.10
2019-02-26T22:46:10.464Z,3.10
2019-02-26T22:48:36.741Z,3.10
2019-02-26T22:51:02.976Z,3.00
2019-02-26T22:53:29.317Z,3.00
2019-02-26T22:55:55.821Z,3.00
2019-02-26T22:58:22.077Z,3.10
2019-02-26T23:00:57.094Z,3.20
2019-02-26T23:03:25.303Z,3.20
2019-02-26T23:05:51.781Z,3.20
2019-02-26T23:08:18.533Z,3.10
2019-02-26T23:10:45.061Z,3.20
2019-02-26T23:13:11.393Z,3.20
2019-02-26T23:15:37.740Z,3.10
2019-02-26T23:18:04.673Z,3.10
2019-02-26T23:20:31.533Z,3.10
2019-02-26T23:22:57.883Z,3.10
2019-02-26T23:25:24.385Z,3.00
2019-02-26T23:27:50.721Z,3.00
2019-02-26T23:30:17.256Z,3.00
2019-02-26T23:32:44.535Z,3.10
2019-02-26T23:35:12.175Z,3.00
2019-02-26T23:37:38.610Z,3.00
2019-02-26T23:40:07.526Z,3.00
2019-02-26T23:42:34.060Z,3.00
2019-02-26T23:45:00.338Z,3.00
2019-02-26T23:47:26.733Z,2.90
2019-02-26T23:49:53.207Z,2.90
2019-02-26T23:52:19.440Z,2.90
2019-02-26T23:54:45.661Z,2.80
2019-02-26T23:57:11.882Z,2.80
2019-02-26T23:59:38.252Z,2.70
